sensor_id;sensor_type;location;lat;lon;timestamp;P1;durP1;ratioP1;P2;durP2;ratioP2
23732;SDS011;12047;53.450;-2.286;2022-12-07T00:00:25;23.35;;;13.43;;
23732;SDS011;12047;53.450;-2.286;2022-12-07T00:05:26;26.55;;;13.35;;
23732;SDS011;12047;53.450;-2.286;2022-12-07T00:10:27;27.70;;;14.43;;
23732;SDS011;12047;53.450;-2.286;2022-12-07T00:15:27;32.42;;;14.93;;
23732;SDS011;12047;53.450;-2.286;2022-12-07T00:20:28;26.85;;;13.85;;
23732;SDS011;12047;53.450;-2.286;2022-12-07T00:25:29;28.85;;;14.65;;
23732;SDS011;12047;53.450;-2.286;2022-12-07T00:30:30;26.23;;;13.05;;
23732;SDS011;12047;53.450;-2.286;2022-12-07T00:35:31;27.48;;;13.13;;
23732;SDS011;12047;53.450;-2.286;2022-12-07T00:40:31;28.90;;;13.88;;
23732;SDS011;12047;53.450;-2.286;2022-12-07T00:45:32;25.30;;;12.82;;
23732;SDS011;12047;53.450;-2.286;2022-12-07T00:50:33;25.52;;;13.60;;
23732;SDS011;12047;53.450;-2.286;2022-12-07T00:55:34;24.88;;;11.93;;
23732;SDS011;12047;53.450;-2.286;2022-12-07T01:00:35;31.23;;;12.98;;
23732;SDS011;12047;53.450;-2.286;2022-12-07T01:05:37;29.30;;;13.00;;
23732;SDS011;12047;53.450;-2.286;2022-12-07T01:10:38;27.30;;;13.95;;
23732;SDS011;12047;53.450;-2.286;2022-12-07T01:15:42;26.77;;;14.88;;
23732;SDS011;12047;53.450;-2.286;2022-12-07T01:20:44;25.58;;;12.98;;
23732;SDS011;12047;53.450;-2.286;2022-12-07T01:25:44;23.08;;;12.50;;
23732;SDS011;12047;53.450;-2.286;2022-12-07T01:30:53;23.83;;;13.40;;
23732;SDS011;12047;53.450;-2.286;2022-12-07T01:36:08;24.70;;;13.43;;
23732;SDS011;12047;53.450;-2.286;2022-12-07T01:41:09;25.40;;;13.88;;
23732;SDS011;12047;53.450;-2.286;2022-12-07T01:46:10;21.67;;;13.18;;
23732;SDS011;12047;53.450;-2.286;2022-12-07T01:51:11;27.70;;;12.77;;
23732;SDS011;12047;53.450;-2.286;2022-12-07T01:56:16;20.45;;;12.30;;
23732;SDS011;12047;53.450;-2.286;2022-12-07T02:01:21;23.55;;;12.43;;
23732;SDS011;12047;53.450;-2.286;2022-12-07T02:06:23;24.80;;;11.98;;
23732;SDS011;12047;53.450;-2.286;2022-12-07T02:11:25;20.58;;;12.00;;
23732;SDS011;12047;53.450;-2.286;2022-12-07T02:16:47;23.42;;;12.07;;
23732;SDS011;12047;53.450;-2.286;2022-12-07T02:27:22;21.85;;;12.20;;
23732;SDS011;12047;53.450;-2.286;2022-12-07T02:43:06;18.13;;;11.73;;
23732;SDS011;12047;53.450;-2.286;2022-12-07T02:48:44;27.83;;;12.95;;
23732;SDS011;12047;53.450;-2.286;2022-12-07T02:53:47;23.73;;;12.48;;
23732;SDS011;12047;53.450;-2.286;2022-12-07T03:04:14;27.08;;;14.95;;
23732;SDS011;12047;53.450;-2.286;2022-12-07T03:09:22;24.50;;;14.52;;
23732;SDS011;12047;53.450;-2.286;2022-12-07T03:14:34;25.20;;;14.00;;
23732;SDS011;12047;53.450;-2.286;2022-12-07T03:19:41;26.50;;;13.13;;
23732;SDS011;12047;53.450;-2.286;2022-12-07T03:24:54;21.17;;;12.60;;
23732;SDS011;12047;53.450;-2.286;2022-12-07T03:29:59;20.27;;;13.10;;
23732;SDS011;12047;53.450;-2.286;2022-12-07T03:35:04;21.52;;;11.85;;
23732;SDS011;12047;53.450;-2.286;2022-12-07T03:45:44;16.42;;;11.80;;
23732;SDS011;12047;53.450;-2.286;2022-12-07T03:56:27;21.70;;;11.75;;
23732;SDS011;12047;53.450;-2.286;2022-12-07T04:01:29;27.52;;;12.55;;
23732;SDS011;12047;53.450;-2.286;2022-12-07T04:06:31;20.90;;;12.75;;
23732;SDS011;12047;53.450;-2.286;2022-12-07T04:11:32;24.80;;;13.20;;
23732;SDS011;12047;53.450;-2.286;2022-12-07T04:16:32;21.30;;;12.48;;
23732;SDS011;12047;53.450;-2.286;2022-12-07T04:21:35;31.02;;;13.57;;
23732;SDS011;12047;53.450;-2.286;2022-12-07T04:26:36;26.00;;;12.43;;
23732;SDS011;12047;53.450;-2.286;2022-12-07T04:31:37;20.13;;;11.32;;
23732;SDS011;12047;53.450;-2.286;2022-12-07T04:36:38;19.13;;;11.40;;
23732;SDS011;12047;53.450;-2.286;2022-12-07T04:41:39;20.75;;;12.02;;
23732;SDS011;12047;53.450;-2.286;2022-12-07T04:46:40;20.70;;;12.18;;
23732;SDS011;12047;53.450;-2.286;2022-12-07T04:51:41;20.58;;;10.75;;
23732;SDS011;12047;53.450;-2.286;2022-12-07T04:56:42;22.80;;;11.82;;
23732;SDS011;12047;53.450;-2.286;2022-12-07T05:01:43;20.00;;;11.20;;
23732;SDS011;12047;53.450;-2.286;2022-12-07T05:06:44;24.83;;;12.75;;
23732;SDS011;12047;53.450;-2.286;2022-12-07T05:11:45;19.08;;;11.60;;
23732;SDS011;12047;53.450;-2.286;2022-12-07T05:16:46;24.65;;;12.70;;
23732;SDS011;12047;53.450;-2.286;2022-12-07T05:21:49;23.23;;;13.27;;
23732;SDS011;12047;53.450;-2.286;2022-12-07T05:26:50;22.67;;;13.85;;
23732;SDS011;12047;53.450;-2.286;2022-12-07T05:31:51;22.92;;;13.35;;
23732;SDS011;12047;53.450;-2.286;2022-12-07T05:36:51;19.58;;;12.27;;
23732;SDS011;12047;53.450;-2.286;2022-12-07T05:41:52;27.10;;;12.55;;
23732;SDS011;12047;53.450;-2.286;2022-12-07T05:47:11;21.52;;;11.50;;
23732;SDS011;12047;53.450;-2.286;2022-12-07T05:52:13;23.85;;;12.05;;
23732;SDS011;12047;53.450;-2.286;2022-12-07T05:57:14;20.33;;;11.18;;
23732;SDS011;12047;53.450;-2.286;2022-12-07T06:02:15;21.85;;;11.82;;
23732;SDS011;12047;53.450;-2.286;2022-12-07T06:07:16;29.13;;;14.55;;
23732;SDS011;12047;53.450;-2.286;2022-12-07T06:12:17;26.58;;;14.52;;
23732;SDS011;12047;53.450;-2.286;2022-12-07T06:17:36;25.75;;;14.38;;
23732;SDS011;12047;53.450;-2.286;2022-12-07T06:22:36;24.95;;;13.85;;
23732;SDS011;12047;53.450;-2.286;2022-12-07T06:27:37;22.15;;;12.85;;
23732;SDS011;12047;53.450;-2.286;2022-12-07T06:32:38;26.27;;;13.45;;
23732;SDS011;12047;53.450;-2.286;2022-12-07T06:37:38;31.30;;;15.40;;
23732;SDS011;12047;53.450;-2.286;2022-12-07T06:42:39;27.10;;;15.90;;
23732;SDS011;12047;53.450;-2.286;2022-12-07T06:47:42;24.65;;;14.30;;
23732;SDS011;12047;53.450;-2.286;2022-12-07T06:52:42;21.65;;;13.10;;
23732;SDS011;12047;53.450;-2.286;2022-12-07T06:57:43;26.70;;;15.05;;
23732;SDS011;12047;53.450;-2.286;2022-12-07T07:02:43;25.92;;;15.00;;
23732;SDS011;12047;53.450;-2.286;2022-12-07T07:07:44;27.00;;;15.40;;
23732;SDS011;12047;53.450;-2.286;2022-12-07T07:12:45;23.00;;;13.75;;
23732;SDS011;12047;53.450;-2.286;2022-12-07T07:17:45;22.85;;;13.13;;
23732;SDS011;12047;53.450;-2.286;2022-12-07T07:22:46;23.92;;;16.17;;
23732;SDS011;12047;53.450;-2.286;2022-12-07T07:27:47;25.45;;;13.15;;
23732;SDS011;12047;53.450;-2.286;2022-12-07T07:32:47;28.48;;;15.60;;
23732;SDS011;12047;53.450;-2.286;2022-12-07T07:37:48;28.25;;;16.23;;
23732;SDS011;12047;53.450;-2.286;2022-12-07T07:42:49;32.33;;;16.67;;
23732;SDS011;12047;53.450;-2.286;2022-12-07T07:47:50;24.13;;;14.23;;
23732;SDS011;12047;53.450;-2.286;2022-12-07T07:52:58;27.30;;;16.60;;
23732;SDS011;12047;53.450;-2.286;2022-12-07T07:58:02;37.45;;;18.95;;
23732;SDS011;12047;53.450;-2.286;2022-12-07T08:03:02;32.22;;;17.60;;
23732;SDS011;12047;53.450;-2.286;2022-12-07T08:08:03;34.15;;;19.10;;
23732;SDS011;12047;53.450;-2.286;2022-12-07T08:13:04;35.85;;;19.13;;
23732;SDS011;12047;53.450;-2.286;2022-12-07T08:18:11;49.65;;;16.50;;
23732;SDS011;12047;53.450;-2.286;2022-12-07T08:23:12;30.25;;;15.68;;
23732;SDS011;12047;53.450;-2.286;2022-12-07T08:28:13;26.52;;;14.63;;
23732;SDS011;12047;53.450;-2.286;2022-12-07T08:33:15;27.08;;;15.27;;
23732;SDS011;12047;53.450;-2.286;2022-12-07T08:38:16;31.73;;;16.55;;
23732;SDS011;12047;53.450;-2.286;2022-12-07T08:43:20;32.97;;;15.65;;
23732;SDS011;12047;53.450;-2.286;2022-12-07T08:48:21;35.92;;;19.63;;
23732;SDS011;12047;53.450;-2.286;2022-12-07T08:53:22;45.53;;;22.83;;
23732;SDS011;12047;53.450;-2.286;2022-12-07T08:58:22;37.03;;;21.20;;
23732;SDS011;12047;53.450;-2.286;2022-12-07T09:03:23;34.13;;;18.92;;
23732;SDS011;12047;53.450;-2.286;2022-12-07T09:08:26;37.33;;;21.95;;
23732;SDS011;12047;53.450;-2.286;2022-12-07T09:13:30;32.40;;;19.02;;
23732;SDS011;12047;53.450;-2.286;2022-12-07T09:18:31;32.78;;;18.55;;
23732;SDS011;12047;53.450;-2.286;2022-12-07T09:23:31;43.15;;;22.20;;
23732;SDS011;12047;53.450;-2.286;2022-12-07T09:28:32;37.95;;;19.63;;
23732;SDS011;12047;53.450;-2.286;2022-12-07T09:33:33;31.45;;;19.20;;
23732;SDS011;12047;53.450;-2.286;2022-12-07T09:38:34;33.45;;;19.77;;
23732;SDS011;12047;53.450;-2.286;2022-12-07T09:43:35;33.25;;;19.15;;
23732;SDS011;12047;53.450;-2.286;2022-12-07T09:48:39;63.75;;;19.40;;
23732;SDS011;12047;53.450;-2.286;2022-12-07T09:53:42;36.53;;;20.63;;
23732;SDS011;12047;53.450;-2.286;2022-12-07T09:58:44;31.60;;;19.27;;
23732;SDS011;12047;53.450;-2.286;2022-12-07T10:03:55;37.25;;;21.60;;
23732;SDS011;12047;53.450;-2.286;2022-12-07T10:09:02;32.35;;;18.83;;
23732;SDS011;12047;53.450;-2.286;2022-12-07T10:14:12;32.57;;;18.17;;
23732;SDS011;12047;53.450;-2.286;2022-12-07T10:19:22;34.33;;;19.23;;
23732;SDS011;12047;53.450;-2.286;2022-12-07T10:24:25;36.65;;;19.98;;
23732;SDS011;12047;53.450;-2.286;2022-12-07T10:29:30;34.03;;;19.27;;
23732;SDS011;12047;53.450;-2.286;2022-12-07T10:34:35;36.17;;;19.42;;
23732;SDS011;12047;53.450;-2.286;2022-12-07T10:39:41;31.15;;;18.40;;
23732;SDS011;12047;53.450;-2.286;2022-12-07T10:44:45;32.42;;;18.90;;
23732;SDS011;12047;53.450;-2.286;2022-12-07T11:00:58;29.65;;;17.70;;
23732;SDS011;12047;53.450;-2.286;2022-12-07T11:06:25;32.70;;;19.60;;
23732;SDS011;12047;53.450;-2.286;2022-12-07T11:11:34;34.53;;;20.02;;
23732;SDS011;12047;53.450;-2.286;2022-12-07T11:16:59;32.85;;;21.83;;
23732;SDS011;12047;53.450;-2.286;2022-12-07T11:22:11;29.65;;;17.95;;
23732;SDS011;12047;53.450;-2.286;2022-12-07T11:37:44;33.60;;;18.35;;
23732;SDS011;12047;53.450;-2.286;2022-12-07T11:48:28;33.42;;;19.10;;
23732;SDS011;12047;53.450;-2.286;2022-12-07T11:53:42;33.30;;;19.80;;
23732;SDS011;12047;53.450;-2.286;2022-12-07T11:58:51;29.70;;;18.38;;
23732;SDS011;12047;53.450;-2.286;2022-12-07T12:04:13;29.08;;;17.95;;
23732;SDS011;12047;53.450;-2.286;2022-12-07T12:09:42;27.13;;;16.15;;
23732;SDS011;12047;53.450;-2.286;2022-12-07T12:15:06;27.58;;;15.48;;
23732;SDS011;12047;53.450;-2.286;2022-12-07T12:26:03;24.63;;;13.73;;
23732;SDS011;12047;53.450;-2.286;2022-12-07T12:31:12;21.98;;;12.63;;
23732;SDS011;12047;53.450;-2.286;2022-12-07T12:51:52;16.45;;;8.70;;
23732;SDS011;12047;53.450;-2.286;2022-12-07T12:57:17;16.95;;;8.82;;
23732;SDS011;12047;53.450;-2.286;2022-12-07T13:23:32;12.60;;;8.60;;
23732;SDS011;12047;53.450;-2.286;2022-12-07T13:28:38;15.93;;;8.70;;
23732;SDS011;12047;53.450;-2.286;2022-12-07T13:33:44;18.02;;;8.95;;
23732;SDS011;12047;53.450;-2.286;2022-12-07T13:38:50;13.90;;;8.32;;
23732;SDS011;12047;53.450;-2.286;2022-12-07T13:44:10;12.32;;;7.10;;
23732;SDS011;12047;53.450;-2.286;2022-12-07T13:49:18;19.20;;;8.57;;
23732;SDS011;12047;53.450;-2.286;2022-12-07T13:54:20;18.63;;;8.80;;
23732;SDS011;12047;53.450;-2.286;2022-12-07T13:59:24;17.33;;;8.10;;
23732;SDS011;12047;53.450;-2.286;2022-12-07T14:04:36;18.70;;;7.57;;
23732;SDS011;12047;53.450;-2.286;2022-12-07T14:09:37;20.30;;;9.40;;
23732;SDS011;12047;53.450;-2.286;2022-12-07T14:14:40;18.15;;;8.60;;
23732;SDS011;12047;53.450;-2.286;2022-12-07T14:19:49;17.13;;;7.38;;
23732;SDS011;12047;53.450;-2.286;2022-12-07T14:30:16;12.65;;;5.95;;
23732;SDS011;12047;53.450;-2.286;2022-12-07T14:35:18;13.07;;;5.35;;
23732;SDS011;12047;53.450;-2.286;2022-12-07T14:40:22;12.80;;;5.68;;
23732;SDS011;12047;53.450;-2.286;2022-12-07T14:45:28;14.27;;;4.85;;
23732;SDS011;12047;53.450;-2.286;2022-12-07T14:50:29;13.25;;;7.65;;
23732;SDS011;12047;53.450;-2.286;2022-12-07T14:55:34;12.40;;;4.80;;
23732;SDS011;12047;53.450;-2.286;2022-12-07T15:00:35;8.73;;;3.75;;
23732;SDS011;12047;53.450;-2.286;2022-12-07T15:05:36;10.90;;;3.92;;
23732;SDS011;12047;53.450;-2.286;2022-12-07T15:10:40;9.65;;;4.40;;
23732;SDS011;12047;53.450;-2.286;2022-12-07T15:15:41;8.20;;;3.70;;
23732;SDS011;12047;53.450;-2.286;2022-12-07T15:20:45;9.57;;;3.80;;
23732;SDS011;12047;53.450;-2.286;2022-12-07T15:25:47;6.90;;;3.20;;
23732;SDS011;12047;53.450;-2.286;2022-12-07T15:30:49;8.77;;;3.75;;
23732;SDS011;12047;53.450;-2.286;2022-12-07T15:35:49;11.35;;;4.32;;
23732;SDS011;12047;53.450;-2.286;2022-12-07T15:40:50;12.13;;;3.78;;
23732;SDS011;12047;53.450;-2.286;2022-12-07T15:45:50;11.10;;;3.00;;
23732;SDS011;12047;53.450;-2.286;2022-12-07T15:50:51;13.95;;;3.90;;
23732;SDS011;12047;53.450;-2.286;2022-12-07T15:55:52;9.32;;;4.20;;
23732;SDS011;12047;53.450;-2.286;2022-12-07T16:00:52;13.75;;;7.13;;
23732;SDS011;12047;53.450;-2.286;2022-12-07T16:05:53;11.02;;;4.82;;
23732;SDS011;12047;53.450;-2.286;2022-12-07T16:10:54;12.27;;;5.28;;
23732;SDS011;12047;53.450;-2.286;2022-12-07T16:15:55;16.35;;;4.72;;
23732;SDS011;12047;53.450;-2.286;2022-12-07T16:20:55;10.68;;;3.58;;
23732;SDS011;12047;53.450;-2.286;2022-12-07T16:31:25;15.65;;;5.45;;
23732;SDS011;12047;53.450;-2.286;2022-12-07T16:36:27;11.20;;;4.40;;
23732;SDS011;12047;53.450;-2.286;2022-12-07T16:41:31;10.13;;;3.78;;
23732;SDS011;12047;53.450;-2.286;2022-12-07T16:46:33;12.07;;;5.07;;
23732;SDS011;12047;53.450;-2.286;2022-12-07T16:51:38;26.15;;;9.63;;
23732;SDS011;12047;53.450;-2.286;2022-12-07T16:56:41;12.48;;;6.20;;
23732;SDS011;12047;53.450;-2.286;2022-12-07T17:01:42;11.82;;;5.47;;
23732;SDS011;12047;53.450;-2.286;2022-12-07T17:06:43;7.40;;;4.40;;
23732;SDS011;12047;53.450;-2.286;2022-12-07T17:11:44;10.48;;;4.95;;
23732;SDS011;12047;53.450;-2.286;2022-12-07T17:16:45;13.30;;;5.70;;
23732;SDS011;12047;53.450;-2.286;2022-12-07T17:21:46;14.40;;;7.05;;
23732;SDS011;12047;53.450;-2.286;2022-12-07T17:26:51;17.20;;;6.45;;
23732;SDS011;12047;53.450;-2.286;2022-12-07T17:31:51;10.13;;;5.30;;
23732;SDS011;12047;53.450;-2.286;2022-12-07T17:36:52;12.93;;;4.68;;
23732;SDS011;12047;53.450;-2.286;2022-12-07T17:41:54;11.65;;;6.18;;
23732;SDS011;12047;53.450;-2.286;2022-12-07T17:47:13;17.10;;;6.85;;
23732;SDS011;12047;53.450;-2.286;2022-12-07T17:52:16;14.55;;;6.13;;
23732;SDS011;12047;53.450;-2.286;2022-12-07T17:57:33;14.57;;;6.40;;
23732;SDS011;12047;53.450;-2.286;2022-12-07T18:02:33;13.55;;;6.72;;
23732;SDS011;12047;53.450;-2.286;2022-12-07T18:07:34;13.57;;;7.10;;
23732;SDS011;12047;53.450;-2.286;2022-12-07T18:12:45;14.25;;;7.95;;
23732;SDS011;12047;53.450;-2.286;2022-12-07T18:17:48;19.73;;;8.25;;
23732;SDS011;12047;53.450;-2.286;2022-12-07T18:22:50;14.93;;;8.18;;
23732;SDS011;12047;53.450;-2.286;2022-12-07T18:27:51;21.70;;;9.25;;
23732;SDS011;12047;53.450;-2.286;2022-12-07T18:32:52;20.73;;;10.55;;
23732;SDS011;12047;53.450;-2.286;2022-12-07T18:37:53;37.15;;;19.83;;
23732;SDS011;12047;53.450;-2.286;2022-12-07T18:42:54;29.60;;;16.42;;
23732;SDS011;12047;53.450;-2.286;2022-12-07T18:47:56;29.40;;;16.02;;
23732;SDS011;12047;53.450;-2.286;2022-12-07T18:52:58;25.92;;;13.23;;
23732;SDS011;12047;53.450;-2.286;2022-12-07T18:58:03;19.27;;;10.23;;
23732;SDS011;12047;53.450;-2.286;2022-12-07T19:03:04;22.15;;;11.50;;
23732;SDS011;12047;53.450;-2.286;2022-12-07T19:08:05;21.55;;;12.23;;
23732;SDS011;12047;53.450;-2.286;2022-12-07T19:13:06;25.02;;;12.82;;
23732;SDS011;12047;53.450;-2.286;2022-12-07T19:18:07;31.98;;;18.13;;
23732;SDS011;12047;53.450;-2.286;2022-12-07T19:23:08;37.67;;;20.38;;
23732;SDS011;12047;53.450;-2.286;2022-12-07T19:28:08;29.65;;;17.65;;
23732;SDS011;12047;53.450;-2.286;2022-12-07T19:33:09;36.55;;;19.63;;
23732;SDS011;12047;53.450;-2.286;2022-12-07T19:38:12;33.65;;;20.45;;
23732;SDS011;12047;53.450;-2.286;2022-12-07T19:43:13;32.00;;;18.40;;
23732;SDS011;12047;53.450;-2.286;2022-12-07T19:48:14;26.90;;;16.58;;
23732;SDS011;12047;53.450;-2.286;2022-12-07T19:53:14;32.83;;;17.80;;
23732;SDS011;12047;53.450;-2.286;2022-12-07T19:58:15;33.95;;;20.40;;
23732;SDS011;12047;53.450;-2.286;2022-12-07T20:03:16;33.80;;;19.95;;
23732;SDS011;12047;53.450;-2.286;2022-12-07T20:08:16;39.13;;;22.83;;
23732;SDS011;12047;53.450;-2.286;2022-12-07T20:13:17;35.40;;;19.95;;
23732;SDS011;12047;53.450;-2.286;2022-12-07T20:18:28;36.65;;;20.17;;
23732;SDS011;12047;53.450;-2.286;2022-12-07T20:23:29;31.30;;;19.52;;
23732;SDS011;12047;53.450;-2.286;2022-12-07T20:28:30;39.83;;;20.10;;
23732;SDS011;12047;53.450;-2.286;2022-12-07T20:33:31;54.67;;;29.65;;
23732;SDS011;12047;53.450;-2.286;2022-12-07T20:38:31;52.03;;;28.70;;
23732;SDS011;12047;53.450;-2.286;2022-12-07T20:43:32;58.28;;;32.20;;
23732;SDS011;12047;53.450;-2.286;2022-12-07T20:48:33;56.60;;;30.88;;
23732;SDS011;12047;53.450;-2.286;2022-12-07T20:53:34;58.38;;;34.35;;
23732;SDS011;12047;53.450;-2.286;2022-12-07T20:58:35;69.43;;;37.45;;
23732;SDS011;12047;53.450;-2.286;2022-12-07T21:03:38;75.45;;;41.28;;
23732;SDS011;12047;53.450;-2.286;2022-12-07T21:08:42;69.93;;;36.90;;
23732;SDS011;12047;53.450;-2.286;2022-12-07T21:13:44;67.20;;;35.95;;
23732;SDS011;12047;53.450;-2.286;2022-12-07T21:18:45;58.95;;;35.92;;
23732;SDS011;12047;53.450;-2.286;2022-12-07T21:23:48;65.47;;;37.05;;
23732;SDS011;12047;53.450;-2.286;2022-12-07T21:28:50;69.78;;;40.10;;
23732;SDS011;12047;53.450;-2.286;2022-12-07T21:33:52;66.13;;;38.03;;
23732;SDS011;12047;53.450;-2.286;2022-12-07T21:38:52;61.08;;;35.35;;
23732;SDS011;12047;53.450;-2.286;2022-12-07T21:43:54;60.05;;;35.40;;
23732;SDS011;12047;53.450;-2.286;2022-12-07T21:48:56;65.53;;;36.03;;
23732;SDS011;12047;53.450;-2.286;2022-12-07T21:53:59;62.80;;;36.47;;
23732;SDS011;12047;53.450;-2.286;2022-12-07T21:59:03;68.10;;;36.60;;
23732;SDS011;12047;53.450;-2.286;2022-12-07T22:04:06;60.00;;;34.83;;
23732;SDS011;12047;53.450;-2.286;2022-12-07T22:09:08;61.15;;;37.20;;
23732;SDS011;12047;53.450;-2.286;2022-12-07T22:14:09;67.72;;;37.92;;
23732;SDS011;12047;53.450;-2.286;2022-12-07T22:19:28;64.13;;;36.92;;
23732;SDS011;12047;53.450;-2.286;2022-12-07T22:24:29;62.20;;;36.53;;
23732;SDS011;12047;53.450;-2.286;2022-12-07T22:29:30;59.97;;;35.22;;
23732;SDS011;12047;53.450;-2.286;2022-12-07T22:34:30;69.32;;;39.78;;
23732;SDS011;12047;53.450;-2.286;2022-12-07T22:39:31;60.53;;;33.75;;
23732;SDS011;12047;53.450;-2.286;2022-12-07T22:44:31;52.00;;;33.33;;
23732;SDS011;12047;53.450;-2.286;2022-12-07T22:55:47;66.25;;;36.33;;
23732;SDS011;12047;53.450;-2.286;2022-12-07T23:01:09;61.85;;;36.00;;
23732;SDS011;12047;53.450;-2.286;2022-12-07T23:06:13;62.10;;;35.25;;
23732;SDS011;12047;53.450;-2.286;2022-12-07T23:11:18;56.15;;;33.38;;
23732;SDS011;12047;53.450;-2.286;2022-12-07T23:16:39;69.40;;;36.75;;
23732;SDS011;12047;53.450;-2.286;2022-12-07T23:21:40;65.60;;;35.65;;
23732;SDS011;12047;53.450;-2.286;2022-12-07T23:26:42;63.15;;;35.95;;
23732;SDS011;12047;53.450;-2.286;2022-12-07T23:31:44;66.32;;;36.03;;
23732;SDS011;12047;53.450;-2.286;2022-12-07T23:36:45;66.75;;;35.38;;
23732;SDS011;12047;53.450;-2.286;2022-12-07T23:41:46;68.93;;;36.67;;
23732;SDS011;12047;53.450;-2.286;2022-12-07T23:46:46;67.00;;;36.03;;
23732;SDS011;12047;53.450;-2.286;2022-12-07T23:51:47;65.20;;;35.60;;
23732;SDS011;12047;53.450;-2.286;2022-12-07T23:56:48;67.88;;;37.17;;
